Latest Coastal Weather Observations for Ngayawili (Elcho Island)

IDD60701

Issued at 2:15 am CST Tuesday 29 July 2014 (issued every 10 minutes, with the page automatically refreshed every 10 minutes)

About coastal observations | Map of coastal stations | Coastal observations for NT | Marine services | Other Formats
Station Details ID: 014517 Name: NGAYAWILI Lat: -12.00 Lon: 135.57 Height: 8.1 m
Data from the previous 72 hours. | See also: Recent months at Ngayawili (Elcho Island)
Date/Time
CST
Temp

°C
Wind Pressure Rain
since 9am
mm
Weather Cloud Vis
km
Sea
Height
m
Swell
Dir
 
Speed
knots
Gust
knots
hPa Trend Height
m
Period
s
Dir
29/02:00am 22.0 SE 7 11 1015.3 - 0.0 - - - - - - -
29/01:30am 22.1 SE 7 11 1015.5 - 0.0 - - - - - - -
29/01:00am 22.0 SE 5 7 1015.7 - 0.0 - - - - - - -
29/12:30am 22.2 SE 6 10 1016.0 - 0.0 - - - - - - -
29/12:00am 22.3 SE 5 7 1016.0 - 0.0 - - - - - - -
 
Date/Time
CST
Temp

°C
Wind Pressure Rain
since 9am
mm
Weather Cloud Vis
km
Sea
Height
m
Swell
Dir
 
Speed
knots
Gust
knots
hPa Trend Height
m
Period
s
Dir
28/11:30pm 22.6 SE 5 8 1016.2 - 0.0 - - - - - - -
28/11:00pm 22.9 ESE 6 9 1016.3 - 0.0 - - - - - - -
28/10:30pm 23.2 ESE 7 12 1016.2 - 0.0 - - - - - - -
28/10:00pm 23.6 ESE 8 12 1016.4 - 0.0 - - - - - - -
28/09:30pm 23.8 ESE 8 13 1016.2 - 0.0 - - - - - - -
28/09:00pm 23.7 ESE 6 8 1015.9 - 0.0 - - - - - - -
28/08:30pm 24.1 ESE 5 8 1015.9 - 0.0 - - - - - - -
28/08:00pm 24.6 ESE 6 11 1015.4 - 0.0 - - - - - - -
28/07:30pm 24.9 ESE 6 8 1015.1 - 0.0 - - - - - - -
28/07:00pm 25.4 ESE 6 8 1014.6 - 0.0 - - - - - - -
28/06:30pm 25.9 ESE 7 11 1014.0 - 0.0 - - - - - - -
28/06:00pm 26.8 ESE 8 13 1013.4 - 0.0 - - - - - - -
28/05:30pm 27.6 ESE 8 13 1013.2 - 0.0 - - - - - - -
28/05:00pm 28.0 ESE 9 16 1012.9 - 0.0 - - - - - - -
28/04:30pm 28.7 ESE 10 15 1012.7 - 0.0 - - - - - - -
28/04:00pm 29.2 ESE 8 15 1012.5 - 0.0 - - - - - - -
28/03:30pm 28.8 E 11 16 1012.6 - 0.0 - - - - - - -
28/03:00pm 28.7 E 8 14 1012.9 - 0.0 - - - - - - -
28/02:30pm 27.9 NE 6 10 1013.3 - 0.0 - - - - - - -
28/02:00pm 27.0 NE 8 11 1013.9 - 0.0 - - - - - - -
28/01:30pm 28.7 E 9 17 1014.1 - 0.0 - - - - - - -
28/01:00pm 28.0 E 8 15 1014.6 - 0.0 - - - - - - -
28/12:30pm 27.7 E 9 14 1015.1 - 0.0 - - - - - - -
28/12:00pm 27.1 E 10 17 1015.7 - 0.0 - - - - - - -
28/11:30am 27.2 E 12 21 1016.1 - 0.0 - - - - - - -
28/11:00am 28.2 ESE 9 15 1016.3 - 0.0 - - - - - - -
28/10:30am 27.2 E 10 16 1016.5 - 0.0 - - - - - - -
28/10:00am 26.4 E 10 18 1016.8 - 0.0 - - - - - - -
28/09:30am 25.9 ESE 9 15 1016.5 - 0.0 - - - - - - -
28/09:00am 24.9 ESE 9 15 1016.3 - 0.0 - - - - - - -
28/08:30am 23.8 SE 8 14 1016.2 - 0.0 - - - - - - -
28/08:00am 22.8 SE 7 14 1016.1 - 0.0 - - - - - - -
28/07:30am 21.7 SE 5 7 1015.8 - 0.0 - - - - - - -
28/07:00am 20.9 SE 5 11 1015.5 - 0.0 - - - - - - -
28/06:30am 20.8 SSE 5 7 1015.3 - 0.0 - - - - - - -
28/06:00am 20.9 SSE 6 7 1014.8 - 0.0 - - - - - - -
28/05:30am 21.3 SE 7 11 1014.7 - 0.0 - - - - - - -
28/05:00am 21.4 SSE 6 10 1014.6 - 0.0 - - - - - - -
28/04:30am 21.5 SE 7 11 1014.3 - 0.0 - - - - - - -
28/04:00am 21.6 SE 7 9 1014.3 - 0.0 - - - - - - -
28/03:30am 21.7 SE 7 11 1014.5 - 0.0 - - - - - - -
28/03:00am 21.9 SE 7 11 1014.5 - 0.0 - - - - - - -
28/02:30am 22.0 SE 7 15 1015.0 - 0.0 - - - - - - -
28/02:00am 22.2 SE 7 11 1015.2 - 0.0 - - - - - - -
28/01:30am 22.5 SE 8 12 1015.5 - 0.0 - - - - - - -
28/01:00am 22.7 ESE 8 13 1016.1 - 0.0 - - - - - - -
28/12:30am 22.9 SE 7 14 1016.3 - 0.0 - - - - - - -
28/12:00am 23.0 SE 7 13 1016.2 - 0.0 - - - - - - -
 
Date/Time
CST
Temp

°C
Wind Pressure Rain
since 9am
mm
Weather Cloud Vis
km
Sea
Height
m
Swell
Dir
 
Speed
knots
Gust
knots
hPa Trend Height
m
Period
s
Dir
27/11:30pm 23.1 SE 5 7 1016.4 - 0.0 - - - - - - -
27/11:00pm 23.5 SE 6 10 1016.4 - 0.0 - - - - - - -
27/10:30pm 23.9 SE 9 14 1016.4 - 0.0 - - - - - - -
27/10:00pm 24.1 SE 8 15 1016.4 - 0.0 - - - - - - -
27/09:30pm 24.5 ESE 8 14 1016.2 - 0.0 - - - - - - -
27/09:00pm 24.9 ESE 8 12 1015.8 - 0.0 - - - - - - -
27/08:30pm 25.2 ESE 9 15 1015.7 - 0.0 - - - - - - -
27/08:00pm 25.3 ESE 6 10 1015.4 - 0.0 - - - - - - -
27/07:30pm 25.6 ESE 6 10 1015.0 - 0.0 - - - - - - -
27/07:00pm 26.0 ESE 6 11 1014.8 - 0.0 - - - - - - -
27/06:30pm 26.6 E 7 11 1014.4 - 0.0 - - - - - - -
27/06:00pm 27.4 ESE 7 11 1013.8 - 0.0 - - - - - - -
27/05:30pm 28.2 E 7 12 1013.6 - 0.0 - - - - - - -
27/05:00pm 28.7 E 8 15 1013.5 - 0.0 - - - - - - -
27/04:30pm 29.3 E 8 13 1013.3 - 0.0 - - - - - - -
27/04:00pm 30.1 E 8 16 1013.2 - 0.0 - - - - - - -
27/03:30pm 29.6 E 9 16 1013.1 - 0.0 - - - - - - -
27/03:00pm 29.9 E 11 17 1013.2 - 0.0 - - - - - - -
27/02:30pm 30.4 E 10 19 1013.7 - 0.0 - - - - - - -
27/02:00pm 30.0 E 9 14 1014.0 - 0.0 - - - - - - -
27/01:30pm 29.5 E 11 20 1014.6 - 0.0 - - - - - - -
27/01:00pm 29.2 ESE 11 18 1015.1 - 0.0 - - - - - - -
27/12:30pm 29.1 E 8 15 1015.7 - 0.0 - - - - - - -
27/12:00pm 28.5 ESE 11 18 1016.1 - 0.0 - - - - - - -
27/11:30am 28.5 ESE 8 13 1016.5 - 0.0 - - - - - - -
27/11:00am 28.4 ESE 7 13 1016.9 - 0.0 - - - - - - -
27/10:30am 27.8 SE 10 17 1017.0 - 0.0 - - - - - - -
27/10:00am 26.7 E 9 16 1017.2 - 0.0 - - - - - - -
27/09:30am 25.3 ESE 7 10 1017.3 - 0.0 - - - - - - -
27/09:00am 24.8 ESE 7 10 1017.3 - 0.0 - - - - - - -
27/08:30am 23.1 ESE 6 9 1017.2 - 0.0 - - - - - - -
27/08:00am 22.0 SE 4 7 1016.8 - 0.0 - - - - - - -
27/07:30am 21.2 SE 4 6 1016.6 - 0.0 - - - - - - -
27/07:00am 21.2 SE 4 6 1016.1 - 0.0 - - - - - - -
27/06:30am 21.2 SE 4 6 1016.0 - 0.0 - - - - - - -
27/06:00am 21.3 SE 5 6 1015.8 - 0.0 - - - - - - -
27/05:30am 21.5 SE 6 10 1015.8 - 0.0 - - - - - - -
27/05:00am 21.2 SE 5 8 1015.5 - 0.0 - - - - - - -
27/04:30am 20.9 SE 4 6 1015.5 - 0.0 - - - - - - -
27/04:00am 20.8 SE 4 6 1015.4 - 0.0 - - - - - - -
27/03:30am 20.6 SE 3 4 1015.5 - 0.0 - - - - - - -
27/03:00am 20.4 SE 3 4 1015.6 - 0.0 - - - - - - -
27/02:30am 20.9 SE 3 4 1016.0 - 0.0 - - - - - - -
27/02:00am 21.5 SE 3 4 1016.6 - 0.0 - - - - - - -
27/01:30am 22.2 SE 6 7 1016.7 - 0.0 - - - - - - -
27/01:00am 22.4 SSE 5 7 1017.0 - 0.0 - - - - - - -
27/12:30am 22.7 SE 5 8 1017.1 - 0.0 - - - - - - -
27/12:00am 23.0 SE 6 8 1017.0 - 0.0 - - - - - - -
 
Date/Time
CST
Temp

°C
Wind Pressure Rain
since 9am
mm
Weather Cloud Vis
km
Sea
Height
m
Swell
Dir
 
Speed
knots
Gust
knots
hPa Trend Height
m
Period
s
Dir
26/11:30pm 23.2 ESE 6 9 1017.2 - 0.0 - - - - - - -
26/11:00pm 23.4 ESE 7 12 1017.5 - 0.0 - - - - - - -
26/10:30pm 23.7 ESE 7 11 1017.6 - 0.0 - - - - - - -
26/10:00pm 23.9 ESE 7 11 1017.5 - 0.0 - - - - - - -
26/09:30pm 24.1 ESE 7 10 1017.6 - 0.0 - - - - - - -
26/09:00pm 24.4 ESE 7 11 1017.4 - 0.0 - - - - - - -
26/08:30pm 24.5 ESE 8 12 1017.4 - 0.0 - - - - - - -
26/08:00pm 24.7 E 8 13 1017.1 - 0.0 - - - - - - -
26/07:30pm 25.0 ESE 8 14 1016.9 - 0.0 - - - - - - -
26/07:00pm 25.0 ESE 7 13 1016.7 - 0.0 - - - - - - -
26/06:30pm 25.3 E 7 15 1016.4 - 0.0 - - - - - - -
26/06:00pm 25.6 E 5 8 1016.0 - 0.0 - - - - - - -
26/05:30pm 26.0 E 6 11 1015.8 - 0.0 - - - - - - -
26/05:00pm 25.9 E 8 13 1015.5 - 0.0 - - - - - - -
26/04:30pm 25.0 E 6 10 1015.3 - 0.0 - - - - - - -
26/04:00pm 25.5 E 9 19 1015.2 - 0.0 - - - - - - -
26/03:30pm 28.0 E 9 14 1014.6 - 0.0 - - - - - - -
26/03:00pm 28.6 E 9 15 1014.4 - 0.0 - - - - - - -
26/02:30pm 29.2 ENE 9 14 1014.6 - 0.0 - - - - - - -
26/02:00pm 28.6 E 9 15 1014.8 - 0.0 - - - - - - -
26/01:30pm 29.5 E 11 22 1015.1 - 0.0 - - - - - - -
26/01:00pm 29.4 E 10 16 1015.4 - 0.0 - - - - - - -
26/12:30pm 28.5 SE 10 16 1015.9 - 0.0 - - - - - - -
26/12:00pm 28.3 ESE 11 16 1016.3 - 0.0 - - - - - - -
26/11:30am 27.7 SE 12 18 1016.8 - 0.0 - - - - - - -
26/11:00am 27.6 ESE 9 15 1017.0 - 0.0 - - - - - - -
26/10:30am 26.5 ESE 10 18 1017.4 - 0.0 - - - - - - -
26/10:00am 25.5 ESE 10 18 1017.6 - 0.0 - - - - - - -
26/09:30am 24.6 ESE 10 16 1017.7 - 0.0 - - - - - - -
26/09:00am 23.6 ESE 10 17 1017.7 - 0.0 - - - - - - -
26/08:30am 23.4 ESE 10 15 1017.4 - 0.0 - - - - - - -
26/08:00am 22.5 SE 8 15 1017.1 - 0.0 - - - - - - -
26/07:30am 21.6 SE 6 9 1016.7 - 0.0 - - - - - - -
26/07:00am 21.1 SE 7 10 1016.5 - 0.0 - - - - - - -
26/06:30am 21.0 SE 6 8 1016.5 - 0.0 - - - - - - -
26/06:00am 21.2 SE 5 9 1016.2 - 0.0 - - - - - - -
26/05:30am 21.3 SE 6 8 1016.2 - 0.0 - - - - - - -
26/05:00am 21.6 ESE 7 10 1016.0 - 0.0 - - - - - - -
26/04:30am 21.7 SE 6 9 1016.0 - 0.0 - - - - - - -
26/04:00am 22.0 SE 8 12 1015.9 - 0.0 - - - - - - -
26/03:30am 21.9 ESE 8 14 1015.8 - 0.0 - - - - - - -
26/03:00am 21.8 ESE 7 11 1015.8 - 0.0 - - - - - - -
26/02:30am 21.9 SE 7 10 1016.5 - 0.0 - - - - - - -

Other Formats:

Comma delimited format used in spreadsheet applications
http://www.bom.gov.au/fwo/IDD60701/IDD60701.95146.axf

JavaScript Object Notation format (JSON) in row-major order
http://www.bom.gov.au/fwo/IDD60701/IDD60701.95146.json